sensor_id;sensor_type;location;lat;lon;timestamp;P1;durP1;ratioP1;P2;durP2;ratioP2
49396;SDS011;35615;41.410;2.194;2023-02-14T00:01:56;51.92;;;29.17;;
49396;SDS011;35615;41.410;2.194;2023-02-14T00:04:27;45.15;;;27.90;;
49396;SDS011;35615;41.410;2.194;2023-02-14T00:06:59;50.25;;;27.52;;
49396;SDS011;35615;41.410;2.194;2023-02-14T00:09:30;51.00;;;29.67;;
49396;SDS011;35615;41.410;2.194;2023-02-14T00:12:06;61.65;;;30.35;;
49396;SDS011;35615;41.410;2.194;2023-02-14T00:14:36;60.53;;;28.85;;
49396;SDS011;35615;41.410;2.194;2023-02-14T00:17:22;60.35;;;30.55;;
49396;SDS011;35615;41.410;2.194;2023-02-14T00:19:52;59.75;;;31.67;;
49396;SDS011;35615;41.410;2.194;2023-02-14T00:22:20;54.65;;;31.00;;
49396;SDS011;35615;41.410;2.194;2023-02-14T00:24:52;68.25;;;30.67;;
49396;SDS011;35615;41.410;2.194;2023-02-14T00:27:24;64.68;;;29.63;;
49396;SDS011;35615;41.410;2.194;2023-02-14T00:29:52;49.55;;;28.52;;
49396;SDS011;35615;41.410;2.194;2023-02-14T00:32:23;47.42;;;28.25;;
49396;SDS011;35615;41.410;2.194;2023-02-14T00:34:52;59.58;;;29.02;;
49396;SDS011;35615;41.410;2.194;2023-02-14T00:37:19;57.20;;;28.08;;
49396;SDS011;35615;41.410;2.194;2023-02-14T00:39:52;53.58;;;29.20;;
49396;SDS011;35615;41.410;2.194;2023-02-14T00:42:22;49.78;;;28.08;;
49396;SDS011;35615;41.410;2.194;2023-02-14T00:44:55;52.92;;;28.42;;
49396;SDS011;35615;41.410;2.194;2023-02-14T00:47:23;55.05;;;29.58;;
49396;SDS011;35615;41.410;2.194;2023-02-14T00:50:08;52.90;;;29.20;;
49396;SDS011;35615;41.410;2.194;2023-02-14T00:52:39;55.13;;;28.42;;
49396;SDS011;35615;41.410;2.194;2023-02-14T00:55:13;51.05;;;28.35;;
49396;SDS011;35615;41.410;2.194;2023-02-14T00:57:48;57.97;;;30.48;;
49396;SDS011;35615;41.410;2.194;2023-02-14T01:00:20;50.25;;;29.90;;
49396;SDS011;35615;41.410;2.194;2023-02-14T01:02:50;51.53;;;29.05;;
49396;SDS011;35615;41.410;2.194;2023-02-14T01:05:22;59.05;;;29.33;;
49396;SDS011;35615;41.410;2.194;2023-02-14T01:07:52;51.10;;;29.15;;
49396;SDS011;35615;41.410;2.194;2023-02-14T01:10:19;48.67;;;27.02;;
49396;SDS011;35615;41.410;2.194;2023-02-14T01:12:50;52.22;;;28.65;;
49396;SDS011;35615;41.410;2.194;2023-02-14T01:15:26;50.17;;;27.95;;
49396;SDS011;35615;41.410;2.194;2023-02-14T01:18:01;52.97;;;29.90;;
49396;SDS011;35615;41.410;2.194;2023-02-14T01:20:32;53.97;;;29.30;;
49396;SDS011;35615;41.410;2.194;2023-02-14T01:23:03;53.22;;;29.60;;
49396;SDS011;35615;41.410;2.194;2023-02-14T01:25:38;53.80;;;29.85;;
49396;SDS011;35615;41.410;2.194;2023-02-14T01:28:11;58.35;;;29.35;;
49396;SDS011;35615;41.410;2.194;2023-02-14T01:30:44;51.45;;;28.48;;
49396;SDS011;35615;41.410;2.194;2023-02-14T01:33:22;50.75;;;28.80;;
49396;SDS011;35615;41.410;2.194;2023-02-14T01:36:02;55.53;;;28.42;;
49396;SDS011;35615;41.410;2.194;2023-02-14T01:38:31;53.20;;;28.58;;
49396;SDS011;35615;41.410;2.194;2023-02-14T01:41:02;50.38;;;29.60;;
49396;SDS011;35615;41.410;2.194;2023-02-14T01:43:56;59.92;;;29.30;;
49396;SDS011;35615;41.410;2.194;2023-02-14T01:46:40;48.20;;;28.30;;
49396;SDS011;35615;41.410;2.194;2023-02-14T01:49:12;48.63;;;29.17;;
49396;SDS011;35615;41.410;2.194;2023-02-14T01:54:57;48.78;;;27.48;;
49396;SDS011;35615;41.410;2.194;2023-02-14T01:57:56;52.55;;;28.75;;
49396;SDS011;35615;41.410;2.194;2023-02-14T02:00:28;47.83;;;27.15;;
49396;SDS011;35615;41.410;2.194;2023-02-14T02:03:15;48.33;;;28.00;;
49396;SDS011;35615;41.410;2.194;2023-02-14T02:05:49;55.80;;;28.98;;
49396;SDS011;35615;41.410;2.194;2023-02-14T02:08:24;55.47;;;28.90;;
49396;SDS011;35615;41.410;2.194;2023-02-14T02:10:56;53.60;;;29.58;;
49396;SDS011;35615;41.410;2.194;2023-02-14T02:13:25;49.38;;;27.27;;
49396;SDS011;35615;41.410;2.194;2023-02-14T02:16:18;48.75;;;26.38;;
49396;SDS011;35615;41.410;2.194;2023-02-14T02:44:38;54.63;;;27.20;;
49396;SDS011;35615;41.410;2.194;2023-02-14T02:53:18;50.80;;;27.73;;
49396;SDS011;35615;41.410;2.194;2023-02-14T02:56:00;51.90;;;27.17;;
49396;SDS011;35615;41.410;2.194;2023-02-14T02:59:05;52.50;;;28.33;;
49396;SDS011;35615;41.410;2.194;2023-02-14T03:04:37;61.75;;;31.35;;
49396;SDS011;35615;41.410;2.194;2023-02-14T03:07:33;50.63;;;27.63;;
49396;SDS011;35615;41.410;2.194;2023-02-14T03:10:09;50.10;;;26.65;;
49396;SDS011;35615;41.410;2.194;2023-02-14T03:15:45;58.47;;;28.90;;
49396;SDS011;35615;41.410;2.194;2023-02-14T03:32:37;52.80;;;28.05;;
49396;SDS011;35615;41.410;2.194;2023-02-14T03:40:38;49.43;;;26.07;;
49396;SDS011;35615;41.410;2.194;2023-02-14T03:46:51;50.70;;;26.67;;
49396;SDS011;35615;41.410;2.194;2023-02-14T03:49:24;54.80;;;27.23;;
49396;SDS011;35615;41.410;2.194;2023-02-14T03:51:56;50.55;;;27.58;;
49396;SDS011;35615;41.410;2.194;2023-02-14T03:54:28;50.65;;;27.27;;
49396;SDS011;35615;41.410;2.194;2023-02-14T03:57:04;56.28;;;30.25;;
49396;SDS011;35615;41.410;2.194;2023-02-14T03:59:39;49.58;;;28.02;;
49396;SDS011;35615;41.410;2.194;2023-02-14T04:02:10;55.22;;;27.65;;
49396;SDS011;35615;41.410;2.194;2023-02-14T04:04:39;55.40;;;27.75;;
49396;SDS011;35615;41.410;2.194;2023-02-14T04:07:14;49.38;;;28.50;;
49396;SDS011;35615;41.410;2.194;2023-02-14T04:09:47;52.72;;;28.70;;
49396;SDS011;35615;41.410;2.194;2023-02-14T04:12:15;51.58;;;28.13;;
49396;SDS011;35615;41.410;2.194;2023-02-14T04:15:08;51.10;;;27.17;;
49396;SDS011;35615;41.410;2.194;2023-02-14T04:17:44;52.05;;;27.63;;
49396;SDS011;35615;41.410;2.194;2023-02-14T04:20:29;52.75;;;28.60;;
49396;SDS011;35615;41.410;2.194;2023-02-14T04:22:57;48.63;;;25.67;;
49396;SDS011;35615;41.410;2.194;2023-02-14T04:25:26;51.50;;;25.67;;
49396;SDS011;35615;41.410;2.194;2023-02-14T04:27:54;48.72;;;26.65;;
49396;SDS011;35615;41.410;2.194;2023-02-14T04:30:21;48.10;;;26.10;;
49396;SDS011;35615;41.410;2.194;2023-02-14T04:32:49;59.33;;;28.27;;
49396;SDS011;35615;41.410;2.194;2023-02-14T04:35:17;52.45;;;27.52;;
49396;SDS011;35615;41.410;2.194;2023-02-14T04:37:49;44.97;;;25.70;;
49396;SDS011;35615;41.410;2.194;2023-02-14T04:40:16;46.55;;;25.88;;
49396;SDS011;35615;41.410;2.194;2023-02-14T04:42:47;46.55;;;24.23;;
49396;SDS011;35615;41.410;2.194;2023-02-14T04:45:17;51.95;;;26.17;;
49396;SDS011;35615;41.410;2.194;2023-02-14T04:47:53;47.90;;;26.73;;
49396;SDS011;35615;41.410;2.194;2023-02-14T04:50:21;44.85;;;24.33;;
49396;SDS011;35615;41.410;2.194;2023-02-14T04:52:52;47.92;;;25.33;;
49396;SDS011;35615;41.410;2.194;2023-02-14T04:55:19;46.65;;;26.73;;
49396;SDS011;35615;41.410;2.194;2023-02-14T04:57:49;47.33;;;25.00;;
49396;SDS011;35615;41.410;2.194;2023-02-14T05:00:24;44.47;;;25.60;;
49396;SDS011;35615;41.410;2.194;2023-02-14T05:03:10;45.25;;;24.98;;
49396;SDS011;35615;41.410;2.194;2023-02-14T05:05:58;46.17;;;24.30;;
49396;SDS011;35615;41.410;2.194;2023-02-14T05:08:56;42.78;;;23.13;;
49396;SDS011;35615;41.410;2.194;2023-02-14T05:11:30;48.35;;;25.20;;
49396;SDS011;35615;41.410;2.194;2023-02-14T05:14:08;46.17;;;25.17;;
49396;SDS011;35615;41.410;2.194;2023-02-14T05:16:40;40.90;;;22.95;;
49396;SDS011;35615;41.410;2.194;2023-02-14T05:19:10;53.13;;;24.23;;
49396;SDS011;35615;41.410;2.194;2023-02-14T05:21:52;44.42;;;24.40;;
49396;SDS011;35615;41.410;2.194;2023-02-14T05:24:29;44.55;;;23.13;;
49396;SDS011;35615;41.410;2.194;2023-02-14T05:27:03;43.90;;;22.08;;
49396;SDS011;35615;41.410;2.194;2023-02-14T05:29:36;41.33;;;22.60;;
49396;SDS011;35615;41.410;2.194;2023-02-14T05:32:12;46.15;;;23.52;;
49396;SDS011;35615;41.410;2.194;2023-02-14T05:34:48;47.13;;;23.80;;
49396;SDS011;35615;41.410;2.194;2023-02-14T05:37:27;41.50;;;22.83;;
49396;SDS011;35615;41.410;2.194;2023-02-14T05:40:01;41.58;;;23.38;;
49396;SDS011;35615;41.410;2.194;2023-02-14T05:42:33;42.50;;;23.05;;
49396;SDS011;35615;41.410;2.194;2023-02-14T05:45:03;47.08;;;24.15;;
49396;SDS011;35615;41.410;2.194;2023-02-14T05:47:46;45.47;;;23.77;;
49396;SDS011;35615;41.410;2.194;2023-02-14T05:50:15;47.13;;;22.90;;
49396;SDS011;35615;41.410;2.194;2023-02-14T05:53:00;58.05;;;23.90;;
49396;SDS011;35615;41.410;2.194;2023-02-14T05:55:33;44.25;;;22.40;;
49396;SDS011;35615;41.410;2.194;2023-02-14T05:58:04;36.70;;;21.55;;
49396;SDS011;35615;41.410;2.194;2023-02-14T06:03:30;45.30;;;23.92;;
49396;SDS011;35615;41.410;2.194;2023-02-14T06:06:04;41.22;;;22.02;;
49396;SDS011;35615;41.410;2.194;2023-02-14T06:08:56;53.42;;;21.63;;
49396;SDS011;35615;41.410;2.194;2023-02-14T06:11:40;47.00;;;23.17;;
49396;SDS011;35615;41.410;2.194;2023-02-14T06:14:13;39.83;;;21.83;;
49396;SDS011;35615;41.410;2.194;2023-02-14T06:16:45;42.90;;;22.35;;
49396;SDS011;35615;41.410;2.194;2023-02-14T06:19:17;40.20;;;22.85;;
49396;SDS011;35615;41.410;2.194;2023-02-14T06:21:55;40.20;;;21.88;;
49396;SDS011;35615;41.410;2.194;2023-02-14T06:24:28;54.65;;;22.00;;
49396;SDS011;35615;41.410;2.194;2023-02-14T06:27:03;38.60;;;21.60;;
49396;SDS011;35615;41.410;2.194;2023-02-14T06:29:48;49.75;;;21.73;;
49396;SDS011;35615;41.410;2.194;2023-02-14T06:32:15;43.20;;;21.77;;
49396;SDS011;35615;41.410;2.194;2023-02-14T06:34:50;43.38;;;22.48;;
49396;SDS011;35615;41.410;2.194;2023-02-14T06:37:24;52.33;;;22.42;;
49396;SDS011;35615;41.410;2.194;2023-02-14T06:39:53;44.33;;;23.15;;
49396;SDS011;35615;41.410;2.194;2023-02-14T06:42:25;45.58;;;23.40;;
49396;SDS011;35615;41.410;2.194;2023-02-14T06:45:05;45.75;;;23.02;;
49396;SDS011;35615;41.410;2.194;2023-02-14T06:48:00;46.13;;;22.27;;
49396;SDS011;35615;41.410;2.194;2023-02-14T06:50:31;53.13;;;22.65;;
49396;SDS011;35615;41.410;2.194;2023-02-14T06:53:01;46.90;;;22.88;;
49396;SDS011;35615;41.410;2.194;2023-02-14T06:55:31;48.05;;;22.10;;
49396;SDS011;35615;41.410;2.194;2023-02-14T06:57:59;48.92;;;22.73;;
49396;SDS011;35615;41.410;2.194;2023-02-14T07:00:34;47.30;;;22.67;;
49396;SDS011;35615;41.410;2.194;2023-02-14T07:03:03;57.67;;;22.40;;
49396;SDS011;35615;41.410;2.194;2023-02-14T07:05:32;51.55;;;23.33;;
49396;SDS011;35615;41.410;2.194;2023-02-14T07:08:00;55.67;;;24.85;;
49396;SDS011;35615;41.410;2.194;2023-02-14T07:10:40;45.28;;;23.27;;
49396;SDS011;35615;41.410;2.194;2023-02-14T07:13:11;50.72;;;23.98;;
49396;SDS011;35615;41.410;2.194;2023-02-14T07:15:46;49.80;;;22.98;;
49396;SDS011;35615;41.410;2.194;2023-02-14T07:18:22;48.22;;;22.23;;
49396;SDS011;35615;41.410;2.194;2023-02-14T07:20:53;45.78;;;22.88;;
49396;SDS011;35615;41.410;2.194;2023-02-14T07:23:25;45.72;;;23.88;;
49396;SDS011;35615;41.410;2.194;2023-02-14T07:25:59;47.70;;;25.13;;
49396;SDS011;35615;41.410;2.194;2023-02-14T07:28:32;45.22;;;24.45;;
49396;SDS011;35615;41.410;2.194;2023-02-14T07:31:11;49.20;;;23.02;;
49396;SDS011;35615;41.410;2.194;2023-02-14T07:33:52;50.97;;;22.35;;
49396;SDS011;35615;41.410;2.194;2023-02-14T07:36:26;52.78;;;24.38;;
49396;SDS011;35615;41.410;2.194;2023-02-14T07:38:55;52.90;;;23.17;;
49396;SDS011;35615;41.410;2.194;2023-02-14T07:41:39;53.80;;;23.13;;
49396;SDS011;35615;41.410;2.194;2023-02-14T07:44:11;46.10;;;22.50;;
49396;SDS011;35615;41.410;2.194;2023-02-14T07:46:47;46.30;;;22.13;;
49396;SDS011;35615;41.410;2.194;2023-02-14T07:49:17;53.30;;;22.23;;
49396;SDS011;35615;41.410;2.194;2023-02-14T07:51:52;57.92;;;22.90;;
49396;SDS011;35615;41.410;2.194;2023-02-14T07:54:24;48.80;;;23.67;;
49396;SDS011;35615;41.410;2.194;2023-02-14T07:56:52;43.55;;;21.77;;
49396;SDS011;35615;41.410;2.194;2023-02-14T07:59:25;50.45;;;23.92;;
49396;SDS011;35615;41.410;2.194;2023-02-14T08:02:00;64.38;;;24.25;;
49396;SDS011;35615;41.410;2.194;2023-02-14T08:04:33;52.88;;;24.30;;
49396;SDS011;35615;41.410;2.194;2023-02-14T08:07:05;55.00;;;23.08;;
49396;SDS011;35615;41.410;2.194;2023-02-14T08:09:34;54.08;;;22.40;;
49396;SDS011;35615;41.410;2.194;2023-02-14T08:12:08;54.10;;;24.63;;
49396;SDS011;35615;41.410;2.194;2023-02-14T08:14:58;41.65;;;21.83;;
49396;SDS011;35615;41.410;2.194;2023-02-14T08:17:49;52.40;;;23.60;;
49396;SDS011;35615;41.410;2.194;2023-02-14T08:20:17;54.42;;;22.35;;
49396;SDS011;35615;41.410;2.194;2023-02-14T08:22:54;43.83;;;23.20;;
49396;SDS011;35615;41.410;2.194;2023-02-14T08:25:36;51.63;;;23.98;;
49396;SDS011;35615;41.410;2.194;2023-02-14T08:28:06;48.97;;;23.08;;
49396;SDS011;35615;41.410;2.194;2023-02-14T08:30:48;41.45;;;22.50;;
49396;SDS011;35615;41.410;2.194;2023-02-14T08:33:21;44.15;;;22.60;;
49396;SDS011;35615;41.410;2.194;2023-02-14T08:35:50;47.38;;;22.95;;
49396;SDS011;35615;41.410;2.194;2023-02-14T08:38:25;45.13;;;23.65;;
49396;SDS011;35615;41.410;2.194;2023-02-14T08:41:02;49.13;;;23.75;;
49396;SDS011;35615;41.410;2.194;2023-02-14T08:43:36;48.72;;;22.40;;
49396;SDS011;35615;41.410;2.194;2023-02-14T08:49:16;43.28;;;22.58;;
49396;SDS011;35615;41.410;2.194;2023-02-14T08:51:44;50.30;;;22.50;;
49396;SDS011;35615;41.410;2.194;2023-02-14T08:54:16;39.15;;;22.00;;
49396;SDS011;35615;41.410;2.194;2023-02-14T08:56:53;46.05;;;22.65;;
49396;SDS011;35615;41.410;2.194;2023-02-14T08:59:45;41.95;;;23.40;;
49396;SDS011;35615;41.410;2.194;2023-02-14T09:02:15;51.42;;;23.00;;
49396;SDS011;35615;41.410;2.194;2023-02-14T09:04:59;50.63;;;23.95;;
49396;SDS011;35615;41.410;2.194;2023-02-14T09:07:36;42.28;;;21.25;;
49396;SDS011;35615;41.410;2.194;2023-02-14T09:10:07;42.15;;;24.05;;
49396;SDS011;35615;41.410;2.194;2023-02-14T09:15:48;45.40;;;24.05;;
49396;SDS011;35615;41.410;2.194;2023-02-14T09:18:16;50.00;;;24.42;;
49396;SDS011;35615;41.410;2.194;2023-02-14T09:20:57;50.67;;;23.63;;
49396;SDS011;35615;41.410;2.194;2023-02-14T09:23:44;44.20;;;23.63;;
49396;SDS011;35615;41.410;2.194;2023-02-14T09:28:51;47.33;;;22.77;;
49396;SDS011;35615;41.410;2.194;2023-02-14T09:31:25;42.63;;;23.98;;
49396;SDS011;35615;41.410;2.194;2023-02-14T09:34:29;52.47;;;23.27;;
49396;SDS011;35615;41.410;2.194;2023-02-14T09:37:03;49.90;;;23.50;;
49396;SDS011;35615;41.410;2.194;2023-02-14T09:39:35;45.25;;;23.85;;
49396;SDS011;35615;41.410;2.194;2023-02-14T09:45:11;49.38;;;25.55;;
49396;SDS011;35615;41.410;2.194;2023-02-14T09:48:01;45.10;;;25.20;;
49396;SDS011;35615;41.410;2.194;2023-02-14T09:50:47;44.78;;;24.45;;
49396;SDS011;35615;41.410;2.194;2023-02-14T09:53:42;44.97;;;26.38;;
49396;SDS011;35615;41.410;2.194;2023-02-14T09:56:23;46.28;;;25.42;;
49396;SDS011;35615;41.410;2.194;2023-02-14T10:01:58;44.42;;;25.65;;
49396;SDS011;35615;41.410;2.194;2023-02-14T10:05:10;54.13;;;26.52;;
49396;SDS011;35615;41.410;2.194;2023-02-14T10:10:42;46.22;;;24.98;;
49396;SDS011;35615;41.410;2.194;2023-02-14T10:13:18;51.40;;;25.20;;
49396;SDS011;35615;41.410;2.194;2023-02-14T10:21:47;51.38;;;25.90;;
49396;SDS011;35615;41.410;2.194;2023-02-14T10:24:52;52.50;;;26.27;;
49396;SDS011;35615;41.410;2.194;2023-02-14T10:27:54;49.88;;;24.40;;
49396;SDS011;35615;41.410;2.194;2023-02-14T10:30:25;42.67;;;24.20;;
49396;SDS011;35615;41.410;2.194;2023-02-14T10:33:06;43.23;;;25.43;;
49396;SDS011;35615;41.410;2.194;2023-02-14T10:36:04;41.00;;;23.83;;
49396;SDS011;35615;41.410;2.194;2023-02-14T10:39:15;49.97;;;25.30;;
49396;SDS011;35615;41.410;2.194;2023-02-14T10:45:12;45.50;;;24.30;;
49396;SDS011;35615;41.410;2.194;2023-02-14T10:48:04;41.95;;;24.67;;
49396;SDS011;35615;41.410;2.194;2023-02-14T10:54:22;45.63;;;24.00;;
49396;SDS011;35615;41.410;2.194;2023-02-14T10:57:25;44.20;;;23.63;;
49396;SDS011;35615;41.410;2.194;2023-02-14T11:00:06;38.28;;;22.35;;
49396;SDS011;35615;41.410;2.194;2023-02-14T11:02:58;37.78;;;23.55;;
49396;SDS011;35615;41.410;2.194;2023-02-14T11:05:45;35.13;;;18.25;;
49396;SDS011;35615;41.410;2.194;2023-02-14T11:10:54;18.13;;;11.55;;
49396;SDS011;35615;41.410;2.194;2023-02-14T11:13:40;17.40;;;10.73;;
49396;SDS011;35615;41.410;2.194;2023-02-14T11:16:22;17.85;;;11.57;;
49396;SDS011;35615;41.410;2.194;2023-02-14T11:22:06;14.77;;;9.80;;
49396;SDS011;35615;41.410;2.194;2023-02-14T11:24:43;18.73;;;10.15;;
49396;SDS011;35615;41.410;2.194;2023-02-14T11:27:26;16.67;;;10.40;;
49396;SDS011;35615;41.410;2.194;2023-02-14T11:30:11;12.90;;;10.57;;
49396;SDS011;35615;41.410;2.194;2023-02-14T11:32:54;15.40;;;10.70;;
49396;SDS011;35615;41.410;2.194;2023-02-14T11:35:28;20.15;;;11.48;;
49396;SDS011;35615;41.410;2.194;2023-02-14T11:38:04;19.33;;;12.15;;
49396;SDS011;35615;41.410;2.194;2023-02-14T11:40:53;17.58;;;10.52;;
49396;SDS011;35615;41.410;2.194;2023-02-14T11:43:32;20.85;;;12.40;;
49396;SDS011;35615;41.410;2.194;2023-02-14T11:46:09;17.73;;;12.02;;
49396;SDS011;35615;41.410;2.194;2023-02-14T11:48:59;23.42;;;12.45;;
49396;SDS011;35615;41.410;2.194;2023-02-14T11:51:44;18.17;;;12.82;;
49396;SDS011;35615;41.410;2.194;2023-02-14T11:57:25;20.88;;;12.52;;
49396;SDS011;35615;41.410;2.194;2023-02-14T12:00:23;22.00;;;13.90;;
49396;SDS011;35615;41.410;2.194;2023-02-14T12:03:14;18.60;;;11.65;;
49396;SDS011;35615;41.410;2.194;2023-02-14T12:05:52;16.70;;;11.57;;
49396;SDS011;35615;41.410;2.194;2023-02-14T12:08:30;19.35;;;12.40;;
49396;SDS011;35615;41.410;2.194;2023-02-14T12:11:23;18.38;;;10.40;;
49396;SDS011;35615;41.410;2.194;2023-02-14T12:14:03;17.30;;;10.88;;
49396;SDS011;35615;41.410;2.194;2023-02-14T12:16:48;13.48;;;10.27;;
49396;SDS011;35615;41.410;2.194;2023-02-14T12:26:35;15.52;;;10.30;;
49396;SDS011;35615;41.410;2.194;2023-02-14T12:29:32;14.82;;;8.95;;
49396;SDS011;35615;41.410;2.194;2023-02-14T12:37:52;14.40;;;9.35;;
49396;SDS011;35615;41.410;2.194;2023-02-14T12:43:52;15.57;;;8.30;;
49396;SDS011;35615;41.410;2.194;2023-02-14T12:46:30;11.48;;;8.18;;
49396;SDS011;35615;41.410;2.194;2023-02-14T13:03:15;9.73;;;7.90;;
49396;SDS011;35615;41.410;2.194;2023-02-14T13:09:22;13.15;;;8.20;;
49396;SDS011;35615;41.410;2.194;2023-02-14T13:12:26;11.27;;;8.00;;
49396;SDS011;35615;41.410;2.194;2023-02-14T13:15:37;9.50;;;8.48;;
49396;SDS011;35615;41.410;2.194;2023-02-14T13:18:48;10.45;;;7.80;;
49396;SDS011;35615;41.410;2.194;2023-02-14T13:21:39;9.75;;;7.95;;
49396;SDS011;35615;41.410;2.194;2023-02-14T13:26:55;10.10;;;7.72;;
49396;SDS011;35615;41.410;2.194;2023-02-14T13:32:54;10.23;;;7.50;;
49396;SDS011;35615;41.410;2.194;2023-02-14T13:35:35;12.85;;;7.75;;
49396;SDS011;35615;41.410;2.194;2023-02-14T13:38:13;14.45;;;8.65;;
49396;SDS011;35615;41.410;2.194;2023-02-14T13:40:48;11.98;;;6.93;;
49396;SDS011;35615;41.410;2.194;2023-02-14T13:52:09;8.32;;;6.25;;
49396;SDS011;35615;41.410;2.194;2023-02-14T13:54:44;10.20;;;5.63;;
49396;SDS011;35615;41.410;2.194;2023-02-14T14:00:20;10.65;;;5.07;;
49396;SDS011;35615;41.410;2.194;2023-02-14T14:03:51;8.00;;;4.80;;
49396;SDS011;35615;41.410;2.194;2023-02-14T14:06:10;9.98;;;5.43;;
49396;SDS011;35615;41.410;2.194;2023-02-14T14:08:45;7.13;;;5.55;;
49396;SDS011;35615;41.410;2.194;2023-02-14T14:12:34;7.32;;;5.15;;
49396;SDS011;35615;41.410;2.194;2023-02-14T14:14:31;6.35;;;5.35;;
49396;SDS011;35615;41.410;2.194;2023-02-14T14:29:49;5.78;;;5.20;;
49396;SDS011;35615;41.410;2.194;2023-02-14T14:32:36;9.43;;;4.97;;
49396;SDS011;35615;41.410;2.194;2023-02-14T14:38:01;8.98;;;5.88;;
49396;SDS011;35615;41.410;2.194;2023-02-14T14:40:54;8.52;;;5.18;;
49396;SDS011;35615;41.410;2.194;2023-02-14T14:46:00;6.13;;;4.95;;
49396;SDS011;35615;41.410;2.194;2023-02-14T14:48:44;6.82;;;4.00;;
49396;SDS011;35615;41.410;2.194;2023-02-14T14:51:45;7.88;;;4.88;;
49396;SDS011;35615;41.410;2.194;2023-02-14T14:54:19;7.85;;;4.93;;
49396;SDS011;35615;41.410;2.194;2023-02-14T14:57:05;9.02;;;5.40;;
49396;SDS011;35615;41.410;2.194;2023-02-14T14:59:36;5.60;;;4.30;;
49396;SDS011;35615;41.410;2.194;2023-02-14T15:02:23;5.38;;;4.47;;
49396;SDS011;35615;41.410;2.194;2023-02-14T15:05:18;9.05;;;4.82;;
49396;SDS011;35615;41.410;2.194;2023-02-14T15:10:55;9.32;;;5.75;;
49396;SDS011;35615;41.410;2.194;2023-02-14T15:13:49;7.40;;;5.10;;
49396;SDS011;35615;41.410;2.194;2023-02-14T15:22:27;7.25;;;4.38;;
49396;SDS011;35615;41.410;2.194;2023-02-14T15:25:20;7.35;;;4.57;;
49396;SDS011;35615;41.410;2.194;2023-02-14T15:27:54;5.90;;;5.05;;
49396;SDS011;35615;41.410;2.194;2023-02-14T15:30:25;6.27;;;5.03;;
49396;SDS011;35615;41.410;2.194;2023-02-14T15:33:05;6.47;;;4.45;;
49396;SDS011;35615;41.410;2.194;2023-02-14T15:35:56;5.97;;;4.90;;
49396;SDS011;35615;41.410;2.194;2023-02-14T15:38:40;7.18;;;5.50;;
49396;SDS011;35615;41.410;2.194;2023-02-14T15:41:16;6.83;;;4.83;;
49396;SDS011;35615;41.410;2.194;2023-02-14T15:43:56;5.85;;;4.63;;
49396;SDS011;35615;41.410;2.194;2023-02-14T15:46:46;9.02;;;4.68;;
49396;SDS011;35615;41.410;2.194;2023-02-14T15:49:20;7.30;;;5.13;;
49396;SDS011;35615;41.410;2.194;2023-02-14T15:51:50;6.85;;;5.10;;
49396;SDS011;35615;41.410;2.194;2023-02-14T15:54:22;8.77;;;4.70;;
49396;SDS011;35615;41.410;2.194;2023-02-14T15:57:04;6.28;;;5.13;;
49396;SDS011;35615;41.410;2.194;2023-02-14T15:59:43;8.63;;;4.85;;
49396;SDS011;35615;41.410;2.194;2023-02-14T16:05:15;7.47;;;5.00;;
49396;SDS011;35615;41.410;2.194;2023-02-14T16:08:06;7.07;;;5.07;;
49396;SDS011;35615;41.410;2.194;2023-02-14T16:13:58;10.63;;;6.15;;
49396;SDS011;35615;41.410;2.194;2023-02-14T16:17:11;10.18;;;5.47;;
49396;SDS011;35615;41.410;2.194;2023-02-14T16:19:46;8.10;;;5.38;;
49396;SDS011;35615;41.410;2.194;2023-02-14T16:22:24;9.35;;;5.32;;
49396;SDS011;35615;41.410;2.194;2023-02-14T16:25:22;14.73;;;4.85;;
49396;SDS011;35615;41.410;2.194;2023-02-14T16:27:57;7.13;;;5.47;;
49396;SDS011;35615;41.410;2.194;2023-02-14T16:33:11;9.00;;;4.85;;
49396;SDS011;35615;41.410;2.194;2023-02-14T16:36:13;16.88;;;5.90;;
49396;SDS011;35615;41.410;2.194;2023-02-14T16:39:02;11.45;;;5.28;;
49396;SDS011;35615;41.410;2.194;2023-02-14T16:41:44;10.32;;;5.65;;
49396;SDS011;35615;41.410;2.194;2023-02-14T16:44:18;6.65;;;4.90;;
49396;SDS011;35615;41.410;2.194;2023-02-14T16:46:54;9.60;;;5.57;;
49396;SDS011;35615;41.410;2.194;2023-02-14T16:49:22;8.15;;;5.38;;
49396;SDS011;35615;41.410;2.194;2023-02-14T16:51:51;7.93;;;5.80;;
49396;SDS011;35615;41.410;2.194;2023-02-14T16:54:22;9.25;;;5.95;;
49396;SDS011;35615;41.410;2.194;2023-02-14T16:56:56;8.48;;;6.50;;
49396;SDS011;35615;41.410;2.194;2023-02-14T16:59:47;9.75;;;6.35;;
49396;SDS011;35615;41.410;2.194;2023-02-14T17:02:45;9.93;;;6.25;;
49396;SDS011;35615;41.410;2.194;2023-02-14T17:05:36;11.68;;;6.10;;
49396;SDS011;35615;41.410;2.194;2023-02-14T17:08:08;11.68;;;5.65;;
49396;SDS011;35615;41.410;2.194;2023-02-14T17:10:52;8.43;;;5.72;;
49396;SDS011;35615;41.410;2.194;2023-02-14T17:13:24;10.63;;;6.68;;
49396;SDS011;35615;41.410;2.194;2023-02-14T17:19:11;10.55;;;5.53;;
49396;SDS011;35615;41.410;2.194;2023-02-14T17:21:55;9.85;;;6.30;;
49396;SDS011;35615;41.410;2.194;2023-02-14T17:24:38;13.10;;;6.78;;
49396;SDS011;35615;41.410;2.194;2023-02-14T17:27:09;8.52;;;6.10;;
49396;SDS011;35615;41.410;2.194;2023-02-14T17:29:43;17.80;;;6.88;;
49396;SDS011;35615;41.410;2.194;2023-02-14T17:32:11;8.77;;;6.05;;
49396;SDS011;35615;41.410;2.194;2023-02-14T17:34:54;9.73;;;6.75;;
49396;SDS011;35615;41.410;2.194;2023-02-14T17:37:44;10.38;;;6.63;;
49396;SDS011;35615;41.410;2.194;2023-02-14T17:40:28;11.75;;;6.82;;
49396;SDS011;35615;41.410;2.194;2023-02-14T17:43:13;9.80;;;6.80;;
49396;SDS011;35615;41.410;2.194;2023-02-14T17:45:44;13.32;;;6.90;;
49396;SDS011;35615;41.410;2.194;2023-02-14T17:48:28;10.43;;;7.00;;
49396;SDS011;35615;41.410;2.194;2023-02-14T17:51:04;12.88;;;7.72;;
49396;SDS011;35615;41.410;2.194;2023-02-14T17:53:35;10.43;;;6.93;;
49396;SDS011;35615;41.410;2.194;2023-02-14T17:56:13;11.98;;;7.63;;
49396;SDS011;35615;41.410;2.194;2023-02-14T17:58:44;9.15;;;7.03;;
49396;SDS011;35615;41.410;2.194;2023-02-14T18:01:26;15.52;;;7.95;;
49396;SDS011;35615;41.410;2.194;2023-02-14T18:04:06;10.43;;;6.75;;
49396;SDS011;35615;41.410;2.194;2023-02-14T18:07:07;11.68;;;7.45;;
49396;SDS011;35615;41.410;2.194;2023-02-14T18:09:36;11.52;;;7.18;;
49396;SDS011;35615;41.410;2.194;2023-02-14T18:12:06;14.10;;;7.43;;
49396;SDS011;35615;41.410;2.194;2023-02-14T18:14:48;13.63;;;8.48;;
49396;SDS011;35615;41.410;2.194;2023-02-14T18:17:29;11.88;;;8.13;;
49396;SDS011;35615;41.410;2.194;2023-02-14T18:20:13;9.00;;;7.45;;
49396;SDS011;35615;41.410;2.194;2023-02-14T18:22:49;14.80;;;8.70;;
49396;SDS011;35615;41.410;2.194;2023-02-14T18:28:07;9.98;;;7.03;;
49396;SDS011;35615;41.410;2.194;2023-02-14T18:30:43;15.25;;;8.68;;
49396;SDS011;35615;41.410;2.194;2023-02-14T18:33:18;15.02;;;8.20;;
49396;SDS011;35615;41.410;2.194;2023-02-14T18:36:00;15.13;;;8.80;;
49396;SDS011;35615;41.410;2.194;2023-02-14T18:38:41;13.63;;;8.77;;
49396;SDS011;35615;41.410;2.194;2023-02-14T18:41:37;12.85;;;8.93;;
49396;SDS011;35615;41.410;2.194;2023-02-14T18:44:21;11.38;;;8.05;;
49396;SDS011;35615;41.410;2.194;2023-02-14T18:47:02;14.15;;;8.15;;
49396;SDS011;35615;41.410;2.194;2023-02-14T18:49:35;15.90;;;8.35;;
49396;SDS011;35615;41.410;2.194;2023-02-14T18:52:07;11.48;;;8.40;;
49396;SDS011;35615;41.410;2.194;2023-02-14T18:54:35;14.00;;;9.00;;